sensor_id;sensor_type;location;lat;lon;timestamp;temperature;humidity
12889;DHT22;56848;49.896;11.424;2022-12-18T05:02:51;-16.80;99.90
12889;DHT22;56848;49.896;11.424;2022-12-18T05:05:17;-16.70;99.90
12889;DHT22;56848;49.896;11.424;2022-12-18T05:07:43;-16.50;99.90
12889;DHT22;56848;49.896;11.424;2022-12-18T05:10:09;-16.50;99.90
12889;DHT22;56848;49.896;11.424;2022-12-18T05:12:34;-16.70;99.90
12889;DHT22;56848;49.896;11.424;2022-12-18T05:15:20;-16.70;99.90
12889;DHT22;56848;49.896;11.424;2022-12-18T05:17:45;-16.70;99.90
12889;DHT22;56848;49.896;11.424;2022-12-18T05:20:11;-16.70;99.90
12889;DHT22;56848;49.896;11.424;2022-12-18T05:22:36;-16.90;99.90
12889;DHT22;56848;49.896;11.424;2022-12-18T05:25:02;-16.90;99.90
12889;DHT22;56848;49.896;11.424;2022-12-18T05:27:28;-16.90;99.90
12889;DHT22;56848;49.896;11.424;2022-12-18T05:29:53;-16.60;99.90
12889;DHT22;56848;49.896;11.424;2022-12-18T05:32:19;-16.40;99.90
12889;DHT22;56848;49.896;11.424;2022-12-18T05:34:44;-16.50;99.90
12889;DHT22;56848;49.896;11.424;2022-12-18T05:37:10;-16.40;99.90
12889;DHT22;56848;49.896;11.424;2022-12-18T05:39:35;-16.40;99.90
12889;DHT22;56848;49.896;11.424;2022-12-18T05:42:01;-16.60;99.90
12889;DHT22;56848;49.896;11.424;2022-12-18T05:44:26;-16.80;99.90
12889;DHT22;56848;49.896;11.424;2022-12-18T05:46:52;-16.70;99.90
12889;DHT22;56848;49.896;11.424;2022-12-18T05:49:17;-17.00;99.90
12889;DHT22;56848;49.896;11.424;2022-12-18T05:51:43;-17.30;99.90
12889;DHT22;56848;49.896;11.424;2022-12-18T05:54:08;-17.40;99.90
12889;DHT22;56848;49.896;11.424;2022-12-18T05:56:34;-17.30;99.90
12889;DHT22;56848;49.896;11.424;2022-12-18T05:59:01;-17.40;99.90
12889;DHT22;56848;49.896;11.424;2022-12-18T06:01:27;-17.50;99.90
12889;DHT22;56848;49.896;11.424;2022-12-18T06:03:52;-17.50;99.90
12889;DHT22;56848;49.896;11.424;2022-12-18T06:06:21;-17.40;99.90
12889;DHT22;56848;49.896;11.424;2022-12-18T06:08:47;-17.20;99.90
12889;DHT22;56848;49.896;11.424;2022-12-18T06:11:17;-17.10;99.90
12889;DHT22;56848;49.896;11.424;2022-12-18T06:13:43;-16.90;99.90
12889;DHT22;56848;49.896;11.424;2022-12-18T06:16:08;-17.10;99.90
12889;DHT22;56848;49.896;11.424;2022-12-18T06:18:37;-17.10;99.90
12889;DHT22;56848;49.896;11.424;2022-12-18T06:21:03;-17.00;99.90
12889;DHT22;56848;49.896;11.424;2022-12-18T06:23:28;-17.10;99.90
12889;DHT22;56848;49.896;11.424;2022-12-18T06:25:54;-17.40;99.90
12889;DHT22;56848;49.896;11.424;2022-12-18T06:28:20;-17.20;99.90
12889;DHT22;56848;49.896;11.424;2022-12-18T06:30:47;-17.00;99.90
12889;DHT22;56848;49.896;11.424;2022-12-18T06:33:13;-16.80;99.90
12889;DHT22;56848;49.896;11.424;2022-12-18T06:35:39;-17.00;99.90
12889;DHT22;56848;49.896;11.424;2022-12-18T06:38:05;-17.00;99.90
12889;DHT22;56848;49.896;11.424;2022-12-18T06:40:31;-17.10;99.90
12889;DHT22;56848;49.896;11.424;2022-12-18T06:42:56;-17.30;99.90
12889;DHT22;56848;49.896;11.424;2022-12-18T06:45:22;-17.10;99.90
12889;DHT22;56848;49.896;11.424;2022-12-18T06:47:47;-16.90;99.90
12889;DHT22;56848;49.896;11.424;2022-12-18T06:50:13;-16.60;99.90
12889;DHT22;56848;49.896;11.424;2022-12-18T06:52:39;-16.50;99.90
12889;DHT22;56848;49.896;11.424;2022-12-18T06:55:08;-16.60;99.90
12889;DHT22;56848;49.896;11.424;2022-12-18T06:57:34;-17.00;99.90
12889;DHT22;56848;49.896;11.424;2022-12-18T07:00:00;-16.90;99.90
12889;DHT22;56848;49.896;11.424;2022-12-18T07:02:25;-16.80;99.90
12889;DHT22;56848;49.896;11.424;2022-12-18T07:04:51;-16.60;99.90
12889;DHT22;56848;49.896;11.424;2022-12-18T07:07:17;-16.40;99.90
12889;DHT22;56848;49.896;11.424;2022-12-18T07:09:43;-16.80;99.90
12889;DHT22;56848;49.896;11.424;2022-12-18T07:12:08;-16.90;99.90
12889;DHT22;56848;49.896;11.424;2022-12-18T07:14:34;-16.70;99.90
12889;DHT22;56848;49.896;11.424;2022-12-18T07:16:59;-17.00;99.90
12889;DHT22;56848;49.896;11.424;2022-12-18T07:19:25;-16.90;99.90
12889;DHT22;56848;49.896;11.424;2022-12-18T07:21:51;-16.80;99.90
12889;DHT22;56848;49.896;11.424;2022-12-18T07:24:17;-16.90;99.90
12889;DHT22;56848;49.896;11.424;2022-12-18T07:26:42;-17.20;99.90
12889;DHT22;56848;49.896;11.424;2022-12-18T07:29:10;-17.30;99.90
12889;DHT22;56848;49.896;11.424;2022-12-18T07:31:36;-17.30;99.90
12889;DHT22;56848;49.896;11.424;2022-12-18T07:34:01;-17.20;99.90
12889;DHT22;56848;49.896;11.424;2022-12-18T07:36:27;-17.30;99.90
12889;DHT22;56848;49.896;11.424;2022-12-18T07:38:52;-17.30;99.90
12889;DHT22;56848;49.896;11.424;2022-12-18T07:41:18;-17.40;99.90
12889;DHT22;56848;49.896;11.424;2022-12-18T07:43:44;-17.30;99.90
12889;DHT22;56848;49.896;11.424;2022-12-18T07:46:11;-17.20;99.90
12889;DHT22;56848;49.896;11.424;2022-12-18T07:48:39;-16.90;99.90
12889;DHT22;56848;49.896;11.424;2022-12-18T07:51:06;-16.70;99.90
12889;DHT22;56848;49.896;11.424;2022-12-18T07:53:34;-16.60;99.90
12889;DHT22;56848;49.896;11.424;2022-12-18T07:56:02;-16.80;99.90
12889;DHT22;56848;49.896;11.424;2022-12-18T07:58:28;-16.80;99.90
12889;DHT22;56848;49.896;11.424;2022-12-18T08:00:54;-17.00;99.90
12889;DHT22;56848;49.896;11.424;2022-12-18T08:03:27;-16.70;99.90
12889;DHT22;56848;49.896;11.424;2022-12-18T08:05:52;-16.60;99.90
12889;DHT22;56848;49.896;11.424;2022-12-18T08:08:18;-16.50;99.90
12889;DHT22;56848;49.896;11.424;2022-12-18T08:10:43;-16.50;99.90
12889;DHT22;56848;49.896;11.424;2022-12-18T08:13:09;-16.20;99.90
12889;DHT22;56848;49.896;11.424;2022-12-18T08:15:34;-16.00;99.90
12889;DHT22;56848;49.896;11.424;2022-12-18T08:18:00;-16.10;99.90
12889;DHT22;56848;49.896;11.424;2022-12-18T08:20:25;-16.10;99.90
12889;DHT22;56848;49.896;11.424;2022-12-18T08:22:51;-15.90;99.90
12889;DHT22;56848;49.896;11.424;2022-12-18T08:25:16;-15.90;99.90
12889;DHT22;56848;49.896;11.424;2022-12-18T08:27:42;-15.70;99.90
12889;DHT22;56848;49.896;11.424;2022-12-18T08:30:08;-15.50;99.90
12889;DHT22;56848;49.896;11.424;2022-12-18T08:32:34;-15.50;99.90
12889;DHT22;56848;49.896;11.424;2022-12-18T08:35:00;-15.50;99.90
12889;DHT22;56848;49.896;11.424;2022-12-18T08:37:25;-15.30;99.90
12889;DHT22;56848;49.896;11.424;2022-12-18T08:39:51;-15.30;99.90
12889;DHT22;56848;49.896;11.424;2022-12-18T08:42:16;-15.10;99.90
12889;DHT22;56848;49.896;11.424;2022-12-18T08:45:01;-15.00;99.90
12889;DHT22;56848;49.896;11.424;2022-12-18T08:47:26;-15.20;99.90
12889;DHT22;56848;49.896;11.424;2022-12-18T08:49:52;-15.10;99.90
12889;DHT22;56848;49.896;11.424;2022-12-18T08:52:18;-14.80;99.90
12889;DHT22;56848;49.896;11.424;2022-12-18T08:54:43;-14.70;99.90
12889;DHT22;56848;49.896;11.424;2022-12-18T08:57:09;-14.60;99.90
12889;DHT22;56848;49.896;11.424;2022-12-18T08:59:34;-14.60;99.90
12889;DHT22;56848;49.896;11.424;2022-12-18T09:02:00;-14.40;99.90
12889;DHT22;56848;49.896;11.424;2022-12-18T09:04:26;-14.60;99.90
12889;DHT22;56848;49.896;11.424;2022-12-18T09:06:54;-14.50;99.90
12889;DHT22;56848;49.896;11.424;2022-12-18T09:09:20;-14.10;99.90
12889;DHT22;56848;49.896;11.424;2022-12-18T09:11:46;-13.90;99.90
12889;DHT22;56848;49.896;11.424;2022-12-18T09:14:12;-13.80;99.90
12889;DHT22;56848;49.896;11.424;2022-12-18T09:16:37;-13.60;99.90
12889;DHT22;56848;49.896;11.424;2022-12-18T09:19:04;-13.20;99.90
12889;DHT22;56848;49.896;11.424;2022-12-18T09:21:32;-12.90;99.90
12889;DHT22;56848;49.896;11.424;2022-12-18T09:23:58;-12.60;99.90
12889;DHT22;56848;49.896;11.424;2022-12-18T09:26:25;-12.30;99.90
12889;DHT22;56848;49.896;11.424;2022-12-18T09:28:51;-12.00;99.90
12889;DHT22;56848;49.896;11.424;2022-12-18T09:31:19;-11.70;99.90
12889;DHT22;56848;49.896;11.424;2022-12-18T09:33:45;-11.60;99.90
12889;DHT22;56848;49.896;11.424;2022-12-18T09:36:14;-11.40;99.90
12889;DHT22;56848;49.896;11.424;2022-12-18T09:38:40;-11.30;99.90
12889;DHT22;56848;49.896;11.424;2022-12-18T09:44:05;-11.50;99.90
12889;DHT22;56848;49.896;11.424;2022-12-18T09:46:37;-11.40;99.90
12889;DHT22;56848;49.896;11.424;2022-12-18T09:49:11;-11.40;99.90
12889;DHT22;56848;49.896;11.424;2022-12-18T09:51:41;-11.30;99.90
12889;DHT22;56848;49.896;11.424;2022-12-18T09:54:20;-11.30;99.90
12889;DHT22;56848;49.896;11.424;2022-12-18T09:56:47;-11.00;99.90
12889;DHT22;56848;49.896;11.424;2022-12-18T09:59:35;-10.90;99.90
12889;DHT22;56848;49.896;11.424;2022-12-18T10:02:16;-10.90;99.90
12889;DHT22;56848;49.896;11.424;2022-12-18T10:04:42;-10.60;99.90
12889;DHT22;56848;49.896;11.424;2022-12-18T10:07:16;-10.70;99.90
12889;DHT22;56848;49.896;11.424;2022-12-18T10:10:10;-10.50;99.90
12889;DHT22;56848;49.896;11.424;2022-12-18T10:12:47;-10.40;99.90
12889;DHT22;56848;49.896;11.424;2022-12-18T10:15:24;-10.30;99.90
12889;DHT22;56848;49.896;11.424;2022-12-18T10:18:38;-10.00;99.90
12889;DHT22;56848;49.896;11.424;2022-12-18T10:20:45;-9.80;99.90
12889;DHT22;56848;49.896;11.424;2022-12-18T10:23:24;-9.40;99.90
12889;DHT22;56848;49.896;11.424;2022-12-18T10:26:08;-9.30;99.90
12889;DHT22;56848;49.896;11.424;2022-12-18T10:28:39;-9.00;99.90
12889;DHT22;56848;49.896;11.424;2022-12-18T10:31:25;-8.90;99.90
12889;DHT22;56848;49.896;11.424;2022-12-18T10:33:53;-8.70;99.90
12889;DHT22;56848;49.896;11.424;2022-12-18T10:36:20;-8.70;99.90
12889;DHT22;56848;49.896;11.424;2022-12-18T10:38:46;-8.60;99.90
12889;DHT22;56848;49.896;11.424;2022-12-18T10:43:42;-8.00;99.90
12889;DHT22;56848;49.896;11.424;2022-12-18T10:51:06;-8.30;99.90
12889;DHT22;56848;49.896;11.424;2022-12-18T10:53:33;-8.30;99.90
12889;DHT22;56848;49.896;11.424;2022-12-18T10:56:03;-8.00;99.90
12889;DHT22;56848;49.896;11.424;2022-12-18T11:06:08;-7.10;99.90
12889;DHT22;56848;49.896;11.424;2022-12-18T11:08:34;-7.00;99.90
12889;DHT22;56848;49.896;11.424;2022-12-18T11:11:00;-7.00;99.90
12889;DHT22;56848;49.896;11.424;2022-12-18T11:13:29;-6.90;99.90
12889;DHT22;56848;49.896;11.424;2022-12-18T11:15:56;-6.90;99.90
12889;DHT22;56848;49.896;11.424;2022-12-18T11:18:30;-6.90;99.90
12889;DHT22;56848;49.896;11.424;2022-12-18T11:21:07;-7.10;99.90
12889;DHT22;56848;49.896;11.424;2022-12-18T11:23:34;-7.20;99.90
12889;DHT22;56848;49.896;11.424;2022-12-18T11:26:02;-6.90;99.90
12889;DHT22;56848;49.896;11.424;2022-12-18T11:28:43;-6.80;99.90
12889;DHT22;56848;49.896;11.424;2022-12-18T11:31:20;-6.80;99.90
12889;DHT22;56848;49.896;11.424;2022-12-18T11:34:22;-6.60;99.90
12889;DHT22;56848;49.896;11.424;2022-12-18T11:36:52;-6.60;99.90
12889;DHT22;56848;49.896;11.424;2022-12-18T11:39:35;-6.50;99.90
12889;DHT22;56848;49.896;11.424;2022-12-18T11:42:09;-6.50;99.90
12889;DHT22;56848;49.896;11.424;2022-12-18T11:50:20;-6.40;99.90
12889;DHT22;56848;49.896;11.424;2022-12-18T11:52:47;-6.40;99.90
12889;DHT22;56848;49.896;11.424;2022-12-18T11:55:15;-6.40;99.90
12889;DHT22;56848;49.896;11.424;2022-12-18T12:00:16;-6.30;99.90
12889;DHT22;56848;49.896;11.424;2022-12-18T12:02:58;-6.30;99.90
12889;DHT22;56848;49.896;11.424;2022-12-18T12:05:50;-6.40;99.90
12889;DHT22;56848;49.896;11.424;2022-12-18T12:16:44;-6.30;99.90
12889;DHT22;56848;49.896;11.424;2022-12-18T12:30:21;-6.30;99.90
12889;DHT22;56848;49.896;11.424;2022-12-18T12:33:20;-6.50;99.90
12889;DHT22;56848;49.896;11.424;2022-12-18T12:36:00;-6.40;99.90
12889;DHT22;56848;49.896;11.424;2022-12-18T12:38:41;-6.10;99.90
12889;DHT22;56848;49.896;11.424;2022-12-18T12:41:11;-6.10;99.90
12889;DHT22;56848;49.896;11.424;2022-12-18T12:43:58;-6.40;99.90
12889;DHT22;56848;49.896;11.424;2022-12-18T12:46:26;-6.20;99.90
12889;DHT22;56848;49.896;11.424;2022-12-18T12:48:58;-6.40;99.90
12889;DHT22;56848;49.896;11.424;2022-12-18T12:51:35;-6.20;99.90
12889;DHT22;56848;49.896;11.424;2022-12-18T12:54:05;-6.00;99.90
12889;DHT22;56848;49.896;11.424;2022-12-18T12:57:09;-6.20;99.90
12889;DHT22;56848;49.896;11.424;2022-12-18T12:59:39;-6.20;99.90
12889;DHT22;56848;49.896;11.424;2022-12-18T13:02:28;-6.00;99.90
12889;DHT22;56848;49.896;11.424;2022-12-18T13:05:01;-5.70;99.90
12889;DHT22;56848;49.896;11.424;2022-12-18T13:07:41;-5.70;99.90
12889;DHT22;56848;49.896;11.424;2022-12-18T13:12:55;-5.30;99.90
12889;DHT22;56848;49.896;11.424;2022-12-18T13:15:43;-5.20;99.90
12889;DHT22;56848;49.896;11.424;2022-12-18T13:20:36;-5.20;99.90
12889;DHT22;56848;49.896;11.424;2022-12-18T13:25:57;-5.40;99.90
12889;DHT22;56848;49.896;11.424;2022-12-18T13:31:12;-5.40;99.90
12889;DHT22;56848;49.896;11.424;2022-12-18T13:33:41;-5.40;99.90
12889;DHT22;56848;49.896;11.424;2022-12-18T13:41:40;-5.30;99.90
12889;DHT22;56848;49.896;11.424;2022-12-18T13:44:39;-5.30;99.90
12889;DHT22;56848;49.896;11.424;2022-12-18T13:47:35;-5.40;99.90
12889;DHT22;56848;49.896;11.424;2022-12-18T13:50:11;-5.50;99.90
12889;DHT22;56848;49.896;11.424;2022-12-18T13:52:45;-5.80;99.90
12889;DHT22;56848;49.896;11.424;2022-12-18T13:55:16;-6.10;99.90
12889;DHT22;56848;49.896;11.424;2022-12-18T13:57:43;-6.00;99.90
12889;DHT22;56848;49.896;11.424;2022-12-18T14:02:47;-6.00;99.90
12889;DHT22;56848;49.896;11.424;2022-12-18T14:05:23;-6.10;99.90
12889;DHT22;56848;49.896;11.424;2022-12-18T14:07:49;-6.10;99.90
12889;DHT22;56848;49.896;11.424;2022-12-18T14:10:15;-6.10;99.90
12889;DHT22;56848;49.896;11.424;2022-12-18T14:12:46;-6.30;99.90
12889;DHT22;56848;49.896;11.424;2022-12-18T14:15:34;-6.40;99.90
12889;DHT22;56848;49.896;11.424;2022-12-18T14:20:29;-6.70;99.90
12889;DHT22;56848;49.896;11.424;2022-12-18T14:22:57;-6.70;99.90
12889;DHT22;56848;49.896;11.424;2022-12-18T14:25:25;-6.80;99.90
12889;DHT22;56848;49.896;11.424;2022-12-18T14:28:08;-6.80;99.90
12889;DHT22;56848;49.896;11.424;2022-12-18T14:30:44;-6.50;99.90
12889;DHT22;56848;49.896;11.424;2022-12-18T14:33:11;-6.50;99.90
12889;DHT22;56848;49.896;11.424;2022-12-18T14:35:40;-6.50;99.90
12889;DHT22;56848;49.896;11.424;2022-12-18T14:38:27;-6.60;99.90
12889;DHT22;56848;49.896;11.424;2022-12-18T14:41:04;-6.60;99.90
12889;DHT22;56848;49.896;11.424;2022-12-18T14:43:36;-6.70;99.90
12889;DHT22;56848;49.896;11.424;2022-12-18T14:46:03;-6.70;99.90
12889;DHT22;56848;49.896;11.424;2022-12-18T14:48:41;-6.80;99.90
12889;DHT22;56848;49.896;11.424;2022-12-18T14:53:42;-6.90;99.90
12889;DHT22;56848;49.896;11.424;2022-12-18T14:56:32;-6.80;99.90
12889;DHT22;56848;49.896;11.424;2022-12-18T15:01:31;-6.80;99.90
12889;DHT22;56848;49.896;11.424;2022-12-18T15:03:59;-6.70;99.90
12889;DHT22;56848;49.896;11.424;2022-12-18T15:06:38;-6.80;99.90
12889;DHT22;56848;49.896;11.424;2022-12-18T15:09:23;-6.90;99.90
12889;DHT22;56848;49.896;11.424;2022-12-18T15:11:49;-6.90;99.90
12889;DHT22;56848;49.896;11.424;2022-12-18T15:14:23;-6.90;99.90
12889;DHT22;56848;49.896;11.424;2022-12-18T15:16:54;-6.90;99.90
12889;DHT22;56848;49.896;11.424;2022-12-18T15:19:22;-6.80;99.90
12889;DHT22;56848;49.896;11.424;2022-12-18T15:21:48;-6.50;99.90
12889;DHT22;56848;49.896;11.424;2022-12-18T15:24:26;-6.50;99.90
12889;DHT22;56848;49.896;11.424;2022-12-18T15:26:52;-6.70;99.90
12889;DHT22;56848;49.896;11.424;2022-12-18T15:29:27;-6.50;99.90
12889;DHT22;56848;49.896;11.424;2022-12-18T15:34:26;-6.70;99.90
12889;DHT22;56848;49.896;11.424;2022-12-18T15:36:52;-6.70;99.90
12889;DHT22;56848;49.896;11.424;2022-12-18T15:39:18;-6.70;99.90
12889;DHT22;56848;49.896;11.424;2022-12-18T15:41:44;-6.70;99.90
12889;DHT22;56848;49.896;11.424;2022-12-18T15:44:30;-6.70;99.90
12889;DHT22;56848;49.896;11.424;2022-12-18T15:46:56;-6.80;99.90
12889;DHT22;56848;49.896;11.424;2022-12-18T15:49:22;-6.80;99.90
12889;DHT22;56848;49.896;11.424;2022-12-18T15:51:52;-6.80;99.90
12889;DHT22;56848;49.896;11.424;2022-12-18T15:54:19;-6.80;99.90
12889;DHT22;56848;49.896;11.424;2022-12-18T15:57:05;-6.80;99.90
12889;DHT22;56848;49.896;11.424;2022-12-18T15:59:49;-6.80;99.90
12889;DHT22;56848;49.896;11.424;2022-12-18T16:02:17;-6.80;99.90
12889;DHT22;56848;49.896;11.424;2022-12-18T16:04:43;-6.90;99.90
12889;DHT22;56848;49.896;11.424;2022-12-18T16:07:11;-7.00;99.90
12889;DHT22;56848;49.896;11.424;2022-12-18T16:09:36;-7.00;99.90
12889;DHT22;56848;49.896;11.424;2022-12-18T16:12:02;-7.00;99.90
12889;DHT22;56848;49.896;11.424;2022-12-18T16:14:30;-7.20;99.90
12889;DHT22;56848;49.896;11.424;2022-12-18T16:16:59;-7.20;99.90
12889;DHT22;56848;49.896;11.424;2022-12-18T16:19:25;-7.10;99.90
12889;DHT22;56848;49.896;11.424;2022-12-18T16:21:52;-7.10;99.90
12889;DHT22;56848;49.896;11.424;2022-12-18T16:24:20;-7.30;99.90
12889;DHT22;56848;49.896;11.424;2022-12-18T16:26:47;-7.30;99.90
12889;DHT22;56848;49.896;11.424;2022-12-18T16:29:14;-7.20;99.90
12889;DHT22;56848;49.896;11.424;2022-12-18T16:31:40;-7.10;99.90
12889;DHT22;56848;49.896;11.424;2022-12-18T16:34:23;-7.30;99.90
12889;DHT22;56848;49.896;11.424;2022-12-18T16:36:53;-7.30;99.90
12889;DHT22;56848;49.896;11.424;2022-12-18T16:39:19;-7.30;99.90
12889;DHT22;56848;49.896;11.424;2022-12-18T16:41:45;-7.30;99.90
12889;DHT22;56848;49.896;11.424;2022-12-18T16:44:11;-7.40;99.90
12889;DHT22;56848;49.896;11.424;2022-12-18T16:46:38;-7.10;99.90
12889;DHT22;56848;49.896;11.424;2022-12-18T16:49:04;-6.70;99.90
12889;DHT22;56848;49.896;11.424;2022-12-18T16:51:30;-6.70;99.90
12889;DHT22;56848;49.896;11.424;2022-12-18T16:53:59;-6.80;99.90
12889;DHT22;56848;49.896;11.424;2022-12-18T16:56:24;-6.60;99.90
12889;DHT22;56848;49.896;11.424;2022-12-18T16:58:54;-6.60;99.90
12889;DHT22;56848;49.896;11.424;2022-12-18T17:01:22;-6.50;99.90
12889;DHT22;56848;49.896;11.424;2022-12-18T17:03:57;-6.60;99.90
12889;DHT22;56848;49.896;11.424;2022-12-18T17:06:25;-6.50;99.90
12889;DHT22;56848;49.896;11.424;2022-12-18T17:08:57;-6.70;99.90
12889;DHT22;56848;49.896;11.424;2022-12-18T17:11:27;-6.80;99.90
12889;DHT22;56848;49.896;11.424;2022-12-18T17:13:53;-6.60;99.90
12889;DHT22;56848;49.896;11.424;2022-12-18T17:16:19;-6.60;99.90
12889;DHT22;56848;49.896;11.424;2022-12-18T17:18:45;-6.50;99.90
12889;DHT22;56848;49.896;11.424;2022-12-18T17:21:11;-6.40;99.90
12889;DHT22;56848;49.896;11.424;2022-12-18T17:23:39;-6.40;99.90
12889;DHT22;56848;49.896;11.424;2022-12-18T17:26:06;-6.40;99.90
12889;DHT22;56848;49.896;11.424;2022-12-18T17:28:33;-6.40;99.90
12889;DHT22;56848;49.896;11.424;2022-12-18T17:30:59;-6.40;99.90
12889;DHT22;56848;49.896;11.424;2022-12-18T17:33:25;-6.30;99.90
12889;DHT22;56848;49.896;11.424;2022-12-18T17:35:50;-6.20;99.90
12889;DHT22;56848;49.896;11.424;2022-12-18T17:38:16;-6.30;99.90
12889;DHT22;56848;49.896;11.424;2022-12-18T17:40:42;-6.20;99.90
12889;DHT22;56848;49.896;11.424;2022-12-18T17:43:09;-6.10;99.90
12889;DHT22;56848;49.896;11.424;2022-12-18T17:45:39;-6.10;99.90
12889;DHT22;56848;49.896;11.424;2022-12-18T17:48:06;-6.10;99.90
12889;DHT22;56848;49.896;11.424;2022-12-18T17:50:32;-6.00;99.90
12889;DHT22;56848;49.896;11.424;2022-12-18T17:52:58;-6.10;99.90
12889;DHT22;56848;49.896;11.424;2022-12-18T17:55:25;-6.10;99.90
12889;DHT22;56848;49.896;11.424;2022-12-18T17:57:51;-6.00;99.90
12889;DHT22;56848;49.896;11.424;2022-12-18T18:00:17;-6.00;99.90
12889;DHT22;56848;49.896;11.424;2022-12-18T18:02:43;-6.00;99.90
12889;DHT22;56848;49.896;11.424;2022-12-18T18:05:09;-6.00;99.90
12889;DHT22;56848;49.896;11.424;2022-12-18T18:07:36;-6.00;99.90
12889;DHT22;56848;49.896;11.424;2022-12-18T18:10:02;-5.80;99.90
12889;DHT22;56848;49.896;11.424;2022-12-18T18:12:28;-5.90;99.90
12889;DHT22;56848;49.896;11.424;2022-12-18T18:15:12;-6.00;99.90
12889;DHT22;56848;49.896;11.424;2022-12-18T18:17:37;-6.00;99.90
12889;DHT22;56848;49.896;11.424;2022-12-18T18:20:03;-6.00;99.90
12889;DHT22;56848;49.896;11.424;2022-12-18T18:22:31;-5.90;99.90
12889;DHT22;56848;49.896;11.424;2022-12-18T18:24:56;-6.00;99.90
12889;DHT22;56848;49.896;11.424;2022-12-18T18:27:22;-6.10;99.90
12889;DHT22;56848;49.896;11.424;2022-12-18T18:29:47;-6.20;99.90
12889;DHT22;56848;49.896;11.424;2022-12-18T18:32:13;-6.30;99.90
12889;DHT22;56848;49.896;11.424;2022-12-18T18:34:40;-6.30;99.90
12889;DHT22;56848;49.896;11.424;2022-12-18T18:37:06;-6.30;99.90
12889;DHT22;56848;49.896;11.424;2022-12-18T18:39:31;-6.30;99.90
12889;DHT22;56848;49.896;11.424;2022-12-18T18:41:57;-6.30;99.90
12889;DHT22;56848;49.896;11.424;2022-12-18T18:44:23;-6.30;99.90
12889;DHT22;56848;49.896;11.424;2022-12-18T18:46:49;-6.30;99.90
12889;DHT22;56848;49.896;11.424;2022-12-18T18:49:18;-6.20;99.90
12889;DHT22;56848;49.896;11.424;2022-12-18T18:51:43;-6.30;99.90
12889;DHT22;56848;49.896;11.424;2022-12-18T18:54:09;-6.30;99.90
12889;DHT22;56848;49.896;11.424;2022-12-18T18:56:35;-6.30;99.90
12889;DHT22;56848;49.896;11.424;2022-12-18T18:59:00;-6.10;99.90
12889;DHT22;56848;49.896;11.424;2022-12-18T19:01:26;-6.30;99.90
12889;DHT22;56848;49.896;11.424;2022-12-18T19:03:53;-6.30;99.90
12889;DHT22;56848;49.896;11.424;2022-12-18T19:06:24;-6.40;99.90
12889;DHT22;56848;49.896;11.424;2022-12-18T19:08:50;-6.50;99.90
12889;DHT22;56848;49.896;11.424;2022-12-18T19:11:16;-6.50;99.90
12889;DHT22;56848;49.896;11.424;2022-12-18T19:14:02;-6.60;99.90
12889;DHT22;56848;49.896;11.424;2022-12-18T19:16:28;-6.60;99.90
12889;DHT22;56848;49.896;11.424;2022-12-18T19:18:54;-6.60;99.90
12889;DHT22;56848;49.896;11.424;2022-12-18T19:21:21;-6.60;99.90
12889;DHT22;56848;49.896;11.424;2022-12-18T19:23:47;-6.60;99.90
12889;DHT22;56848;49.896;11.424;2022-12-18T19:26:13;-6.30;99.90
12889;DHT22;56848;49.896;11.424;2022-12-18T19:28:39;-6.60;99.90
12889;DHT22;56848;49.896;11.424;2022-12-18T19:31:07;-6.60;99.90
12889;DHT22;56848;49.896;11.424;2022-12-18T19:33:37;-6.60;99.90
12889;DHT22;56848;49.896;11.424;2022-12-18T19:36:22;-6.60;99.90
12889;DHT22;56848;49.896;11.424;2022-12-18T19:38:50;-6.50;99.90
12889;DHT22;56848;49.896;11.424;2022-12-18T19:41:17;-6.30;99.90
12889;DHT22;56848;49.896;11.424;2022-12-18T19:43:44;-6.30;99.90
12889;DHT22;56848;49.896;11.424;2022-12-18T19:46:12;-6.20;99.90
12889;DHT22;56848;49.896;11.424;2022-12-18T19:48:39;-6.30;99.90
12889;DHT22;56848;49.896;11.424;2022-12-18T19:51:13;-6.30;99.90
12889;DHT22;56848;49.896;11.424;2022-12-18T19:53:39;-6.20;99.90
12889;DHT22;56848;49.896;11.424;2022-12-18T19:56:09;-6.10;99.90
12889;DHT22;56848;49.896;11.424;2022-12-18T19:58:36;-6.00;99.90
12889;DHT22;56848;49.896;11.424;2022-12-18T20:01:02;-6.10;99.90
12889;DHT22;56848;49.896;11.424;2022-12-18T20:03:28;-6.00;99.90
12889;DHT22;56848;49.896;11.424;2022-12-18T20:05:55;-6.10;99.90
12889;DHT22;56848;49.896;11.424;2022-12-18T20:08:20;-6.00;99.90
12889;DHT22;56848;49.896;11.424;2022-12-18T20:10:46;-6.00;99.90
12889;DHT22;56848;49.896;11.424;2022-12-18T20:13:15;-6.00;99.90
12889;DHT22;56848;49.896;11.424;2022-12-18T20:15:40;-6.00;99.90
12889;DHT22;56848;49.896;11.424;2022-12-18T20:18:08;-6.10;99.90
12889;DHT22;56848;49.896;11.424;2022-12-18T20:20:33;-6.10;99.90
12889;DHT22;56848;49.896;11.424;2022-12-18T20:22:59;-6.20;99.90
12889;DHT22;56848;49.896;11.424;2022-12-18T20:25:25;-6.20;99.90
12889;DHT22;56848;49.896;11.424;2022-12-18T20:27:50;-6.20;99.90
12889;DHT22;56848;49.896;11.424;2022-12-18T20:30:16;-6.20;99.90
12889;DHT22;56848;49.896;11.424;2022-12-18T20:32:41;-6.20;99.90
12889;DHT22;56848;49.896;11.424;2022-12-18T20:35:07;-6.10;99.90
12889;DHT22;56848;49.896;11.424;2022-12-18T20:37:33;-6.10;99.90
12889;DHT22;56848;49.896;11.424;2022-12-18T20:39:58;-6.10;99.90
12889;DHT22;56848;49.896;11.424;2022-12-18T20:42:24;-6.10;99.90
12889;DHT22;56848;49.896;11.424;2022-12-18T20:44:49;-6.10;99.90
12889;DHT22;56848;49.896;11.424;2022-12-18T20:47:15;-6.10;99.90
12889;DHT22;56848;49.896;11.424;2022-12-18T20:49:41;-6.10;99.90
12889;DHT22;56848;49.896;11.424;2022-12-18T20:52:06;-6.00;99.90
12889;DHT22;56848;49.896;11.424;2022-12-18T20:54:32;-6.00;99.90
12889;DHT22;56848;49.896;11.424;2022-12-18T20:56:58;-6.00;99.90
12889;DHT22;56848;49.896;11.424;2022-12-18T20:59:23;-6.00;99.90
12889;DHT22;56848;49.896;11.424;2022-12-18T21:01:50;-6.10;99.90
12889;DHT22;56848;49.896;11.424;2022-12-18T21:04:19;-6.10;99.90
12889;DHT22;56848;49.896;11.424;2022-12-18T21:06:49;-6.00;99.90
12889;DHT22;56848;49.896;11.424;2022-12-18T21:09:15;-6.10;99.90
12889;DHT22;56848;49.896;11.424;2022-12-18T21:11:40;-6.00;99.90
12889;DHT22;56848;49.896;11.424;2022-12-18T21:14:27;-6.00;99.90
12889;DHT22;56848;49.896;11.424;2022-12-18T21:16:54;-6.00;99.90
12889;DHT22;56848;49.896;11.424;2022-12-18T21:19:22;-6.00;99.90
12889;DHT22;56848;49.896;11.424;2022-12-18T21:21:48;-6.00;99.90
12889;DHT22;56848;49.896;11.424;2022-12-18T21:24:14;-6.10;99.90
12889;DHT22;56848;49.896;11.424;2022-12-18T21:26:44;-6.10;99.90
